Time;durP1;ratioP1;P1;durP2;ratioP2;P2;SDS_P1;SDS_P2;PMS_P1;PMS_P2;Temp;Humidity;BMP_temperature;BMP_pressure;BME280_temperature;BME280_humidity;BME280_pressure;Samples;Min_cycle;Max_cycle;Signal;HPM_P1;HPM_P2
2022/08/21 14:27:04;;;;;;;;;;;;;;;29.84;59.55;99992.50;12791796;22;1904868;-72
2022/08/21 14:32:13;;;;;;;;;;;;;;;29.66;59.06;99999.56;12875323;23;19947;-69
2022/08/21 14:37:26;;;;;;;;;;;;;;;29.62;58.63;99996.34;12874199;23;19930;-73
2022/08/21 14:42:31;;;;;;;;;;;;;;;29.80;57.73;99989.28;12858651;23;19935;-71
2022/08/21 14:47:34;;;;;;;;;;;;;;;29.84;57.86;99985.31;12860888;23;19951;-74
2022/08/21 14:52:38;;;;;;;;;;;;;;;29.84;58.13;99982.63;12862565;23;19931;-71
2022/08/21 14:57:43;;;;;;;;;;;;;;;29.83;57.49;99972.06;12862902;23;20058;-72
2022/08/21 15:02:47;;;;;;;;;;;;;;;29.71;57.95;99970.56;12878813;23;20330;-71
2022/08/21 15:07:51;;;;;;;;;;;;;;;29.54;56.95;99964.13;12862260;23;19920;-72
2022/08/21 15:12:55;;;;;;;;;;;;;;;29.46;57.78;99972.84;12862253;23;19991;-74
2022/08/21 15:17:58;;;;;;;;;;;;;;;29.34;57.35;99974.00;12862075;23;19920;-71
2022/08/21 15:23:01;;;;;;;;;;;;;;;29.17;58.14;99971.22;12862392;23;20329;-71
2022/08/21 15:28:06;;;;;;;;;;;;;;;29.02;59.90;99970.78;12864576;23;19982;-72
2022/08/21 15:33:09;;;;;;;;;;;;;;;28.95;61.12;99977.69;12863789;23;19958;-71
2022/08/21 15:38:13;;;;;;;;;;;;;;;28.82;60.59;99977.09;12861964;23;20004;-72
2022/08/21 15:43:21;;;;;;;;;;;;;;;28.70;60.54;99972.88;12860925;23;19973;-72
2022/08/21 15:48:32;;;;;;;;;;;;;;;28.59;61.38;99980.19;12878197;23;19951;-75
2022/08/21 15:53:38;;;;;;;;;;;;;;;28.39;62.07;99992.63;12861533;23;20136;-76
2022/08/21 15:58:42;;;;;;;;;;;;;;;28.26;64.03;100000.06;12861170;23;19920;-72
2022/08/21 16:03:48;;;;;;;;;;;;;;;28.14;64.45;100007.31;12860537;23;20276;-72
2022/08/21 16:08:51;;;;;;;;;;;;;;;27.89;65.12;100007.72;12861876;23;19955;-73
2022/08/21 16:13:56;;;;;;;;;;;;;;;27.74;66.17;100009.06;12861661;23;19920;-73
2022/08/21 16:18:59;;;;;;;;;;;;;;;27.56;66.66;100010.63;12860699;23;19999;-71
2022/08/21 16:24:02;;;;;;;;;;;;;;;27.49;67.60;100014.81;12860817;23;19959;-74
2022/08/21 16:29:07;;;;;;;;;;;;;;;27.38;68.64;100022.88;12860853;23;19991;-70
2022/08/21 16:34:13;;;;;;;;;;;;;;;27.29;68.22;100023.66;12860773;23;20007;-72
2022/08/21 16:39:17;;;;;;;;;;;;;;;27.18;68.55;100031.69;12860782;23;19924;-72
2022/08/21 16:44:22;;;;;;;;;;;;;;;27.11;69.68;100030.50;12860289;23;20056;-72
2022/08/21 16:49:25;;;;;;;;;;;;;;;27.00;70.61;100038.53;12878987;23;19978;-71
2022/08/21 16:54:29;;;;;;;;;;;;;;;26.94;71.52;100047.03;12880817;23;19951;-73
2022/08/21 16:59:34;;;;;;;;;;;;;;;26.74;71.68;100056.66;12880994;23;19990;-69
2022/08/21 17:04:37;;;;;;;;;;;;;;;26.70;72.81;100062.34;12862427;23;19966;-71
2022/08/21 17:09:40;;;;;;;;;;;;;;;26.60;73.77;100061.38;12861148;23;19948;-67
2022/08/21 17:14:44;;;;;;;;;;;;;;;26.53;73.52;100068.16;12879045;23;20006;-65
2022/08/21 17:19:47;;;;;;;;;;;;;;;26.40;73.83;100067.47;12879030;23;20011;-63
2022/08/21 17:24:50;;;;;;;;;;;;;;;26.25;75.43;100066.03;12871761;23;19970;-66
2022/08/21 17:29:57;;;;;;;;;;;;;;;26.20;75.24;100063.72;12879292;23;19943;-62
2022/08/21 17:35:00;;;;;;;;;;;;;;;26.08;75.51;100076.19;12879320;23;19998;-68
2022/08/21 17:40:05;;;;;;;;;;;;;;;25.95;76.80;100082.53;12879849;23;19959;-64
2022/08/21 17:45:10;;;;;;;;;;;;;;;25.92;77.05;100078.28;12878894;23;20362;-63
2022/08/21 17:50:14;;;;;;;;;;;;;;;25.81;76.83;100074.78;12878999;23;19952;-62
2022/08/21 17:55:19;;;;;;;;;;;;;;;25.75;78.06;100081.41;12879347;23;19998;-63
2022/08/21 18:00:25;;;;;;;;;;;;;;;25.64;78.70;100077.91;12860083;23;19959;-67
2022/08/21 18:05:28;;;;;;;;;;;;;;;25.56;79.12;100081.13;12878979;23;20362;-64
2022/08/21 18:10:31;;;;;;;;;;;;;;;25.54;79.57;100084.88;12879308;23;19920;-61
2022/08/21 18:15:36;;;;;;;;;;;;;;;25.48;79.56;100091.50;12879451;23;19998;-62
2022/08/21 18:20:39;;;;;;;;;;;;;;;25.39;81.21;100092.19;12879942;23;19959;-62
2022/08/21 18:25:45;;;;;;;;;;;;;;;25.34;81.82;100090.81;12859549;23;20010;-64
2022/08/21 18:30:53;;;;;;;;;;;;;;;25.29;81.97;100085.84;12880149;23;20030;-65
2022/08/21 18:35:56;;;;;;;;;;;;;;;25.23;81.90;100090.78;12881266;23;19924;-64
2022/08/21 18:40:59;;;;;;;;;;;;;;;25.13;81.72;100099.41;12861190;23;19958;-61
2022/08/21 18:46:12;;;;;;;;;;;;;;;25.05;81.98;100101.81;12880152;23;20003;-65
2022/08/21 18:51:15;;;;;;;;;;;;;;;25.06;81.87;100110.59;12859306;23;19947;-67
2022/08/21 18:56:18;;;;;;;;;;;;;;;24.98;82.11;100107.66;12859021;23;19999;-62
2022/08/21 19:01:23;;;;;;;;;;;;;;;24.93;82.49;100105.38;12858849;23;20027;-66
2022/08/21 19:06:26;;;;;;;;;;;;;;;24.87;83.06;100105.78;12859151;23;20386;-66
2022/08/21 19:11:29;;;;;;;;;;;;;;;24.84;86.93;100114.00;12858157;23;20280;-72
2022/08/21 19:16:34;;;;;;;;;;;;;;;24.82;85.32;100109.72;12858309;23;19999;-73
2022/08/21 19:21:37;;;;;;;;;;;;;;;24.79;85.44;100124.09;12858313;23;20013;-72
2022/08/21 19:26:41;;;;;;;;;;;;;;;24.71;85.75;100118.47;12858175;23;20006;-71
2022/08/21 19:31:45;;;;;;;;;;;;;;;24.66;85.92;100117.09;12859188;23;19948;-75
2022/08/21 19:36:50;;;;;;;;;;;;;;;24.65;86.40;100112.72;12882586;23;20003;-71
2022/08/21 19:41:54;;;;;;;;;;;;;;;24.60;86.11;100117.53;12861777;23;20416;-71
2022/08/21 19:46:59;;;;;;;;;;;;;;;24.54;86.47;100126.75;12862188;23;20026;-72
2022/08/21 19:52:07;;;;;;;;;;;;;;;24.49;87.13;100125.41;12882964;23;19955;-74
2022/08/21 19:57:30;;;;;;;;;;;;;;;24.43;88.34;100128.50;12882922;23;19924;-70
2022/08/21 20:02:36;;;;;;;;;;;;;;;24.41;88.59;100123.28;12862849;23;19998;-70
2022/08/21 20:07:49;;;;;;;;;;;;;;;24.36;88.32;100128.09;12884241;23;20080;-71
2022/08/21 20:12:52;;;;;;;;;;;;;;;24.30;89.04;100130.31;12882905;23;20367;-71
2022/08/21 20:17:58;;;;;;;;;;;;;;;24.26;88.56;100131.47;12835649;23;19951;-77
2022/08/21 20:23:01;;;;;;;;;;;;;;;24.24;88.08;100123.63;12861446;23;19999;-72
2022/08/21 20:28:12;;;;;;;;;;;;;;;24.20;88.70;100126.59;12881867;23;19956;-71
2022/08/21 20:33:17;;;;;;;;;;;;;;;24.18;88.68;100124.03;12882418;23;19950;-71
2022/08/21 20:38:21;;;;;;;;;;;;;;;24.16;88.29;100119.81;12860816;23;20326;-71
2022/08/21 20:43:27;;;;;;;;;;;;;;;24.07;88.68;100117.78;12860838;23;20007;-65
2022/08/21 20:48:33;;;;;;;;;;;;;;;23.85;90.67;100123.69;12860568;23;19924;-65
2022/08/21 20:53:57;;;;;;;;;;;;;;;23.75;90.90;100127.91;12880899;23;19990;-65
2022/08/21 20:59:02;;;;;;;;;;;;;;;23.83;89.98;100123.78;12880113;23;19999;-67
2022/08/21 21:04:12;;;;;;;;;;;;;;;23.75;90.29;100115.50;12879856;23;20271;-67
2022/08/21 21:09:38;;;;;;;;;;;;;;;23.70;90.91;100119.44;12860292;23;20035;-67
2022/08/21 21:14:44;;;;;;;;;;;;;;;23.47;92.18;100123.63;12860695;23;19947;-63
2022/08/21 21:19:50;;;;;;;;;;;;;;;23.45;92.61;100125.50;12860512;23;20374;-66
2022/08/21 21:24:58;;;;;;;;;;;;;;;23.56;93.71;100122.16;12860044;23;19998;-69
2022/08/21 21:30:04;;;;;;;;;;;;;;;23.53;92.01;100131.19;12878919;23;20003;-64
2022/08/21 21:35:15;;;;;;;;;;;;;;;23.46;93.09;100132.53;12862009;23;20371;-67
2022/08/21 21:40:41;;;;;;;;;;;;;;;23.47;91.87;100128.91;12876933;23;19991;-70
2022/08/21 21:45:54;;;;;;;;;;;;;;;23.47;90.71;100128.91;12875810;23;20411;-66
2022/08/21 21:51:01;;;;;;;;;;;;;;;23.45;90.33;100128.16;12875531;23;19954;-66
2022/08/21 21:56:19;;;;;;;;;;;;;;;23.40;91.02;100124.97;12874340;23;20002;-70
2022/08/21 22:01:27;;;;;;;;;;;;;;;23.37;90.84;100132.28;12874878;23;19955;-66
2022/08/21 22:06:35;;;;;;;;;;;;;;;23.29;90.35;100127.50;12874352;23;19938;-65
2022/08/21 22:11:44;;;;;;;;;;;;;;;23.22;91.07;100117.38;12873928;23;19998;-66
2022/08/21 22:16:50;;;;;;;;;;;;;;;23.20;91.15;100129.84;12873452;23;20223;-65
2022/08/21 22:21:58;;;;;;;;;;;;;;;23.11;91.55;100125.19;12860083;23;20003;-66
2022/08/21 22:27:02;;;;;;;;;;;;;;;23.06;92.39;100127.25;12861887;23;20021;-67
2022/08/21 22:32:06;;;;;;;;;;;;;;;23.00;93.95;100128.53;12858710;23;19999;-66
2022/08/21 22:37:11;;;;;;;;;;;;;;;22.92;93.96;100115.78;12858562;23;20004;-67
2022/08/21 22:42:22;;;;;;;;;;;;;;;22.92;93.84;100123.72;12858824;23;19948;-65
2022/08/21 22:47:33;;;;;;;;;;;;;;;22.88;93.92;100126.66;12873837;23;19998;-66
2022/08/21 22:52:44;;;;;;;;;;;;;;;22.89;94.32;100125.69;12873478;23;19947;-65
2022/08/21 22:57:47;;;;;;;;;;;;;;;22.81;94.06;100128.81;12873591;23;20003;-67
2022/08/21 23:02:56;;;;;;;;;;;;;;;22.82;94.11;100125.25;12875221;23;19928;-69
2022/08/21 23:08:13;;;;;;;;;;;;;;;22.87;93.76;100119.66;12876068;23;19956;-69
2022/08/21 23:13:27;;;;;;;;;;;;;;;22.86;93.56;100120.63;12863497;23;20022;-68
2022/08/21 23:18:35;;;;;;;;;;;;;;;22.83;93.72;100136.69;12863175;23;19962;-71
2022/08/21 23:23:42;;;;;;;;;;;;;;;22.79;93.23;100127.25;12863156;23;20328;-69
2022/08/21 23:28:51;;;;;;;;;;;;;;;22.79;93.82;100130.75;12875023;23;20018;-70
2022/08/21 23:34:09;;;;;;;;;;;;;;;22.73;94.88;100123.19;12874738;23;19952;-70
2022/08/21 23:39:27;;;;;;;;;;;;;;;22.68;95.47;100140.28;12862190;23;19927;-70
2022/08/21 23:44:37;;;;;;;;;;;;;;;22.76;94.53;100136.22;12872331;23;20307;-71
2022/08/21 23:49:48;;;;;;;;;;;;;;;22.73;94.27;100139.06;12872181;23;19995;-73
2022/08/21 23:55:20;;;;;;;;;;;;;;;22.73;93.77;100143.50;12871456;23;20232;-70
